sensor_id;sensor_type;location;lat;lon;timestamp;pressure;altitude;pressure_sealevel;temperature;humidity
4972;BME280;2501;51.214;6.768;2023-04-07T00:02:24;101098.25;;;7.26;100.00
4972;BME280;2501;51.214;6.768;2023-04-07T00:04:53;101092.75;;;7.16;100.00
4972;BME280;2501;51.214;6.768;2023-04-07T00:07:21;101097.22;;;7.20;100.00
4972;BME280;2501;51.214;6.768;2023-04-07T00:09:50;101091.31;;;7.28;100.00
4972;BME280;2501;51.214;6.768;2023-04-07T00:12:18;101100.78;;;7.23;100.00
4972;BME280;2501;51.214;6.768;2023-04-07T00:14:49;101103.44;;;7.25;100.00
4972;BME280;2501;51.214;6.768;2023-04-07T00:17:17;101102.59;;;7.26;100.00
4972;BME280;2501;51.214;6.768;2023-04-07T00:19:46;101098.09;;;7.20;100.00
4972;BME280;2501;51.214;6.768;2023-04-07T00:22:14;101109.66;;;7.31;100.00
4972;BME280;2501;51.214;6.768;2023-04-07T00:24:43;101103.53;;;7.29;100.00
4972;BME280;2501;51.214;6.768;2023-04-07T00:27:11;101106.94;;;7.25;100.00
4972;BME280;2501;51.214;6.768;2023-04-07T00:29:40;101100.00;;;7.27;100.00
4972;BME280;2501;51.214;6.768;2023-04-07T00:32:13;101096.50;;;7.25;100.00
4972;BME280;2501;51.214;6.768;2023-04-07T00:34:41;101093.84;;;7.24;100.00
4972;BME280;2501;51.214;6.768;2023-04-07T00:37:10;101094.06;;;7.33;100.00
4972;BME280;2501;51.214;6.768;2023-04-07T00:39:38;101096.63;;;7.31;100.00
4972;BME280;2501;51.214;6.768;2023-04-07T00:42:07;101093.13;;;7.31;100.00
4972;BME280;2501;51.214;6.768;2023-04-07T00:44:35;101095.81;;;7.34;100.00
4972;BME280;2501;51.214;6.768;2023-04-07T00:47:04;101097.59;;;7.35;100.00
4972;BME280;2501;51.214;6.768;2023-04-07T00:49:36;101098.53;;;7.39;100.00
4972;BME280;2501;51.214;6.768;2023-04-07T00:52:04;101093.38;;;7.40;100.00
4972;BME280;2501;51.214;6.768;2023-04-07T00:54:33;101094.13;;;7.36;100.00
4972;BME280;2501;51.214;6.768;2023-04-07T00:57:02;101094.06;;;7.33;100.00
4972;BME280;2501;51.214;6.768;2023-04-07T00:59:30;101088.06;;;7.37;100.00
4972;BME280;2501;51.214;6.768;2023-04-07T01:02:02;101082.94;;;7.40;100.00
4972;BME280;2501;51.214;6.768;2023-04-07T01:04:44;101082.88;;;7.39;100.00
4972;BME280;2501;51.214;6.768;2023-04-07T01:07:18;101076.81;;;7.40;100.00
4972;BME280;2501;51.214;6.768;2023-04-07T01:09:54;101078.72;;;7.47;100.00
4972;BME280;2501;51.214;6.768;2023-04-07T01:12:35;101080.53;;;7.49;100.00
4972;BME280;2501;51.214;6.768;2023-04-07T01:15:09;101077.94;;;7.51;100.00
4972;BME280;2501;51.214;6.768;2023-04-07T01:17:46;101083.09;;;7.48;100.00
4972;BME280;2501;51.214;6.768;2023-04-07T01:20:20;101082.16;;;7.46;100.00
4972;BME280;2501;51.214;6.768;2023-04-07T01:22:53;101080.59;;;7.52;100.00
4972;BME280;2501;51.214;6.768;2023-04-07T01:25:41;101083.38;;;7.58;100.00
4972;BME280;2501;51.214;6.768;2023-04-07T01:28:40;101078.19;;;7.60;100.00
4972;BME280;2501;51.214;6.768;2023-04-07T01:31:16;101079.94;;;7.62;100.00
4972;BME280;2501;51.214;6.768;2023-04-07T01:33:45;101075.66;;;7.64;100.00
4972;BME280;2501;51.214;6.768;2023-04-07T01:36:15;101081.22;;;7.78;100.00
4972;BME280;2501;51.214;6.768;2023-04-07T01:38:47;101075.22;;;8.24;100.00
4972;BME280;2501;51.214;6.768;2023-04-07T01:41:17;101072.25;;;8.50;100.00
4972;BME280;2501;51.214;6.768;2023-04-07T01:43:47;101076.81;;;8.58;100.00
4972;BME280;2501;51.214;6.768;2023-04-07T01:46:18;101075.19;;;8.66;100.00
4972;BME280;2501;51.214;6.768;2023-04-07T01:48:47;101075.13;;;8.62;100.00
4972;BME280;2501;51.214;6.768;2023-04-07T01:51:17;101067.16;;;8.56;100.00
4972;BME280;2501;51.214;6.768;2023-04-07T01:53:47;101067.16;;;8.56;100.00
4972;BME280;2501;51.214;6.768;2023-04-07T01:56:16;101074.00;;;8.48;100.00
4972;BME280;2501;51.214;6.768;2023-04-07T01:58:45;101076.44;;;8.40;100.00
4972;BME280;2501;51.214;6.768;2023-04-07T02:01:13;101075.75;;;8.50;100.00
4972;BME280;2501;51.214;6.768;2023-04-07T02:03:49;101072.88;;;8.36;100.00
4972;BME280;2501;51.214;6.768;2023-04-07T02:06:23;101071.97;;;8.34;100.00
4972;BME280;2501;51.214;6.768;2023-04-07T02:08:59;101073.66;;;8.32;100.00
4972;BME280;2501;51.214;6.768;2023-04-07T02:11:31;101070.00;;;8.24;100.00
4972;BME280;2501;51.214;6.768;2023-04-07T02:14:00;101071.09;;;8.34;100.00
4972;BME280;2501;51.214;6.768;2023-04-07T02:16:31;101066.94;;;8.44;100.00
4972;BME280;2501;51.214;6.768;2023-04-07T02:19:03;101079.22;;;8.49;100.00
4972;BME280;2501;51.214;6.768;2023-04-07T02:21:33;101073.97;;;8.46;100.00
4972;BME280;2501;51.214;6.768;2023-04-07T02:24:05;101073.84;;;8.40;100.00
4972;BME280;2501;51.214;6.768;2023-04-07T02:26:34;101070.44;;;8.44;100.00
4972;BME280;2501;51.214;6.768;2023-04-07T02:29:03;101070.19;;;8.33;100.00
4972;BME280;2501;51.214;6.768;2023-04-07T02:31:31;101072.75;;;8.30;100.00
4972;BME280;2501;51.214;6.768;2023-04-07T02:34:00;101070.06;;;8.27;100.00
4972;BME280;2501;51.214;6.768;2023-04-07T02:36:30;101071.53;;;8.13;100.00
4972;BME280;2501;51.214;6.768;2023-04-07T02:38:59;101077.22;;;8.36;100.00
4972;BME280;2501;51.214;6.768;2023-04-07T02:41:27;101075.41;;;8.32;100.00
4972;BME280;2501;51.214;6.768;2023-04-07T02:43:56;101083.88;;;8.22;100.00
4972;BME280;2501;51.214;6.768;2023-04-07T02:46:24;101074.25;;;8.19;100.00
4972;BME280;2501;51.214;6.768;2023-04-07T02:48:53;101078.59;;;8.19;100.00
4972;BME280;2501;51.214;6.768;2023-04-07T02:51:21;101089.72;;;8.09;100.00
4972;BME280;2501;51.214;6.768;2023-04-07T02:53:54;101087.31;;;8.19;100.00
4972;BME280;2501;51.214;6.768;2023-04-07T02:56:22;101093.06;;;8.03;100.00
4972;BME280;2501;51.214;6.768;2023-04-07T02:58:50;101089.75;;;8.10;100.00
4972;BME280;2501;51.214;6.768;2023-04-07T03:01:19;101097.22;;;7.93;100.00
4972;BME280;2501;51.214;6.768;2023-04-07T03:03:47;101094.00;;;8.07;100.00
4972;BME280;2501;51.214;6.768;2023-04-07T03:06:16;101098.31;;;8.04;100.00
4972;BME280;2501;51.214;6.768;2023-04-07T03:08:44;101097.50;;;8.07;100.00
4972;BME280;2501;51.214;6.768;2023-04-07T03:11:15;101101.91;;;8.10;100.00
4972;BME280;2501;51.214;6.768;2023-04-07T03:13:43;101102.00;;;8.13;100.00
4972;BME280;2501;51.214;6.768;2023-04-07T03:16:12;101101.16;;;8.15;100.00
4972;BME280;2501;51.214;6.768;2023-04-07T03:18:40;101094.13;;;8.11;100.00
4972;BME280;2501;51.214;6.768;2023-04-07T03:21:08;101103.31;;;7.94;100.00
4972;BME280;2501;51.214;6.768;2023-04-07T03:23:37;101095.91;;;8.14;100.00
4972;BME280;2501;51.214;6.768;2023-04-07T03:26:05;101103.56;;;8.06;100.00
4972;BME280;2501;51.214;6.768;2023-04-07T03:28:36;101096.59;;;8.05;100.00
4972;BME280;2501;51.214;6.768;2023-04-07T03:31:05;101096.63;;;8.07;100.00
4972;BME280;2501;51.214;6.768;2023-04-07T03:33:33;101097.25;;;7.95;100.00
4972;BME280;2501;51.214;6.768;2023-04-07T03:36:02;101102.59;;;8.01;100.00
4972;BME280;2501;51.214;6.768;2023-04-07T03:38:31;101101.41;;;7.87;100.00
4972;BME280;2501;51.214;6.768;2023-04-07T03:41:00;101099.59;;;7.84;100.00
4972;BME280;2501;51.214;6.768;2023-04-07T03:43:28;101094.63;;;7.95;100.00
4972;BME280;2501;51.214;6.768;2023-04-07T03:45:59;101100.50;;;7.85;100.00
4972;BME280;2501;51.214;6.768;2023-04-07T03:48:28;101095.16;;;7.79;100.00
4972;BME280;2501;51.214;6.768;2023-04-07T03:50:56;101099.63;;;7.86;100.00
4972;BME280;2501;51.214;6.768;2023-04-07T03:53:24;101102.34;;;7.89;100.00
4972;BME280;2501;51.214;6.768;2023-04-07T03:55:53;101104.13;;;7.91;100.00
4972;BME280;2501;51.214;6.768;2023-04-07T03:58:21;101104.16;;;7.93;100.00
4972;BME280;2501;51.214;6.768;2023-04-07T04:00:50;101111.94;;;7.90;100.00
4972;BME280;2501;51.214;6.768;2023-04-07T04:03:21;101110.59;;;7.69;100.00
4972;BME280;2501;51.214;6.768;2023-04-07T04:05:49;101108.34;;;7.86;100.00
4972;BME280;2501;51.214;6.768;2023-04-07T04:08:18;101114.31;;;7.79;100.00
4972;BME280;2501;51.214;6.768;2023-04-07T04:10:47;101116.03;;;7.79;100.00
4972;BME280;2501;51.214;6.768;2023-04-07T04:13:15;101120.31;;;7.75;100.00
4972;BME280;2501;51.214;6.768;2023-04-07T04:15:44;101119.50;;;7.78;100.00
4972;BME280;2501;51.214;6.768;2023-04-07T04:18:12;101125.31;;;7.67;100.00
4972;BME280;2501;51.214;6.768;2023-04-07T04:20:43;101120.72;;;7.56;100.00
4972;BME280;2501;51.214;6.768;2023-04-07T04:23:12;101128.88;;;7.69;100.00
4972;BME280;2501;51.214;6.768;2023-04-07T04:25:40;101127.22;;;7.73;100.00
4972;BME280;2501;51.214;6.768;2023-04-07T04:28:09;101128.16;;;7.77;100.00
4972;BME280;2501;51.214;6.768;2023-04-07T04:30:37;101136.78;;;7.73;100.00
4972;BME280;2501;51.214;6.768;2023-04-07T04:33:09;101128.94;;;7.73;100.00
4972;BME280;2501;51.214;6.768;2023-04-07T04:35:37;101136.66;;;7.68;100.00
4972;BME280;2501;51.214;6.768;2023-04-07T04:38:09;101136.97;;;7.82;100.00
4972;BME280;2501;51.214;6.768;2023-04-07T04:40:37;101142.59;;;7.62;100.00
4972;BME280;2501;51.214;6.768;2023-04-07T04:43:06;101140.97;;;7.66;100.00
4972;BME280;2501;51.214;6.768;2023-04-07T04:45:34;101134.31;;;7.80;100.00
4972;BME280;2501;51.214;6.768;2023-04-07T04:48:02;101143.88;;;7.78;100.00
4972;BME280;2501;51.214;6.768;2023-04-07T04:50:31;101142.97;;;7.76;100.00
4972;BME280;2501;51.214;6.768;2023-04-07T04:53:00;101136.84;;;7.76;100.00
4972;BME280;2501;51.214;6.768;2023-04-07T04:55:32;101145.56;;;7.76;100.00
4972;BME280;2501;51.214;6.768;2023-04-07T04:58:00;101146.34;;;7.72;100.00
4972;BME280;2501;51.214;6.768;2023-04-07T05:00:28;101143.75;;;7.74;100.00
4972;BME280;2501;51.214;6.768;2023-04-07T05:02:57;101153.28;;;7.72;100.00
4972;BME280;2501;51.214;6.768;2023-04-07T05:05:28;101153.81;;;7.57;100.00
4972;BME280;2501;51.214;6.768;2023-04-07T05:07:56;101147.28;;;7.76;100.00
4972;BME280;2501;51.214;6.768;2023-04-07T05:10:24;101159.34;;;7.71;100.00
4972;BME280;2501;51.214;6.768;2023-04-07T05:12:55;101153.09;;;7.64;100.00
4972;BME280;2501;51.214;6.768;2023-04-07T05:15:24;101159.06;;;7.58;100.00
4972;BME280;2501;51.214;6.768;2023-04-07T05:17:52;101160.78;;;7.58;100.00
4972;BME280;2501;51.214;6.768;2023-04-07T05:20:21;101161.13;;;7.72;100.00
4972;BME280;2501;51.214;6.768;2023-04-07T05:22:49;101159.03;;;7.57;100.00
4972;BME280;2501;51.214;6.768;2023-04-07T05:25:18;101170.00;;;7.78;100.00
4972;BME280;2501;51.214;6.768;2023-04-07T05:27:46;101164.19;;;7.91;100.00
4972;BME280;2501;51.214;6.768;2023-04-07T05:30:17;101163.94;;;7.81;100.00
4972;BME280;2501;51.214;6.768;2023-04-07T05:32:46;101172.59;;;7.78;100.00
4972;BME280;2501;51.214;6.768;2023-04-07T05:35:14;101167.06;;;7.66;100.00
4972;BME280;2501;51.214;6.768;2023-04-07T05:37:43;101170.13;;;7.84;100.00
4972;BME280;2501;51.214;6.768;2023-04-07T05:40:11;101168.50;;;7.89;100.00
4972;BME280;2501;51.214;6.768;2023-04-07T05:42:40;101169.16;;;7.79;100.00
4972;BME280;2501;51.214;6.768;2023-04-07T05:45:09;101179.69;;;7.84;100.00
4972;BME280;2501;51.214;6.768;2023-04-07T05:47:41;101183.09;;;7.81;100.00
4972;BME280;2501;51.214;6.768;2023-04-07T05:50:11;101177.94;;;7.84;100.00
4972;BME280;2501;51.214;6.768;2023-04-07T05:52:40;101180.44;;;7.80;100.00
4972;BME280;2501;51.214;6.768;2023-04-07T05:55:08;101176.69;;;7.68;100.00
4972;BME280;2501;51.214;6.768;2023-04-07T05:57:37;101177.94;;;7.84;100.00
4972;BME280;2501;51.214;6.768;2023-04-07T06:00:09;101188.16;;;7.74;100.00
4972;BME280;2501;51.214;6.768;2023-04-07T06:02:38;101192.28;;;7.65;100.00
4972;BME280;2501;51.214;6.768;2023-04-07T06:05:09;101198.69;;;7.77;100.00
4972;BME280;2501;51.214;6.768;2023-04-07T06:07:38;101198.69;;;7.77;100.00
4972;BME280;2501;51.214;6.768;2023-04-07T06:10:07;101204.69;;;7.74;100.00
4972;BME280;2501;51.214;6.768;2023-04-07T06:12:37;101198.72;;;7.80;100.00
4972;BME280;2501;51.214;6.768;2023-04-07T06:15:07;101203.09;;;7.81;100.00
4972;BME280;2501;51.214;6.768;2023-04-07T06:17:40;101203.56;;;7.64;100.00
4972;BME280;2501;51.214;6.768;2023-04-07T06:20:13;101212.09;;;7.92;100.00
4972;BME280;2501;51.214;6.768;2023-04-07T06:22:42;101218.19;;;7.92;100.00
4972;BME280;2501;51.214;6.768;2023-04-07T06:25:11;101207.94;;;7.65;100.00
4972;BME280;2501;51.214;6.768;2023-04-07T06:27:39;101217.06;;;7.83;100.00
4972;BME280;2501;51.214;6.768;2023-04-07T06:30:09;101217.53;;;8.01;100.00
4972;BME280;2501;51.214;6.768;2023-04-07T06:32:38;101212.19;;;7.95;100.00
4972;BME280;2501;51.214;6.768;2023-04-07T06:35:07;101215.34;;;7.83;100.00
4972;BME280;2501;51.214;6.768;2023-04-07T06:37:38;101221.81;;;7.99;100.00
4972;BME280;2501;51.214;6.768;2023-04-07T06:40:08;101218.09;;;7.88;100.00
4972;BME280;2501;51.214;6.768;2023-04-07T06:42:36;101218.94;;;7.87;100.00
4972;BME280;2501;51.214;6.768;2023-04-07T06:45:06;101222.47;;;7.89;100.00
4972;BME280;2501;51.214;6.768;2023-04-07T06:47:35;101224.13;;;8.23;100.00
4972;BME280;2501;51.214;6.768;2023-04-07T06:50:04;101227.00;;;7.96;100.00
4972;BME280;2501;51.214;6.768;2023-04-07T06:52:32;101229.69;;;8.00;100.00
4972;BME280;2501;51.214;6.768;2023-04-07T06:55:04;101229.41;;;7.88;100.00
4972;BME280;2501;51.214;6.768;2023-04-07T06:57:33;101233.13;;;7.98;100.00
4972;BME280;2501;51.214;6.768;2023-04-07T07:00:01;101236.81;;;8.06;100.00
4972;BME280;2501;51.214;6.768;2023-04-07T07:02:32;101237.50;;;7.99;100.00
4972;BME280;2501;51.214;6.768;2023-04-07T07:05:00;101239.47;;;8.08;100.00
4972;BME280;2501;51.214;6.768;2023-04-07T07:07:29;101250.91;;;8.14;100.00
4972;BME280;2501;51.214;6.768;2023-04-07T07:09:57;101248.88;;;8.01;100.00
4972;BME280;2501;51.214;6.768;2023-04-07T07:12:28;101255.34;;;8.17;100.00
4972;BME280;2501;51.214;6.768;2023-04-07T07:14:57;101248.03;;;8.02;100.00
4972;BME280;2501;51.214;6.768;2023-04-07T07:17:26;101246.44;;;8.09;100.00
4972;BME280;2501;51.214;6.768;2023-04-07T07:19:54;101254.16;;;8.04;100.00
4972;BME280;2501;51.214;6.768;2023-04-07T07:22:23;101249.31;;;8.19;100.00
4972;BME280;2501;51.214;6.768;2023-04-07T07:24:51;101251.06;;;8.20;100.00
4972;BME280;2501;51.214;6.768;2023-04-07T07:27:20;101253.50;;;8.11;100.00
4972;BME280;2501;51.214;6.768;2023-04-07T07:29:50;101254.94;;;8.00;100.00
4972;BME280;2501;51.214;6.768;2023-04-07T07:32:19;101257.09;;;8.18;100.00
4972;BME280;2501;51.214;6.768;2023-04-07T07:34:47;101255.56;;;8.26;100.00
4972;BME280;2501;51.214;6.768;2023-04-07T07:37:16;101265.19;;;8.27;100.00
4972;BME280;2501;51.214;6.768;2023-04-07T07:39:44;101266.50;;;8.10;100.00
4972;BME280;2501;51.214;6.768;2023-04-07T07:42:13;101273.06;;;8.28;100.00
4972;BME280;2501;51.214;6.768;2023-04-07T07:44:41;101273.78;;;8.23;100.00
4972;BME280;2501;51.214;6.768;2023-04-07T07:47:12;101274.09;;;8.35;100.00
4972;BME280;2501;51.214;6.768;2023-04-07T07:49:40;101274.56;;;8.19;100.00
4972;BME280;2501;51.214;6.768;2023-04-07T07:52:12;101279.19;;;8.30;100.00
4972;BME280;2501;51.214;6.768;2023-04-07T07:54:40;101282.69;;;8.31;100.00
4972;BME280;2501;51.214;6.768;2023-04-07T07:57:09;101282.44;;;8.20;100.00
4972;BME280;2501;51.214;6.768;2023-04-07T07:59:38;101290.03;;;8.46;100.00
4972;BME280;2501;51.214;6.768;2023-04-07T08:02:07;101293.31;;;8.75;100.00
4972;BME280;2501;51.214;6.768;2023-04-07T08:04:38;101293.19;;;8.70;100.00
4972;BME280;2501;51.214;6.768;2023-04-07T08:07:07;101292.22;;;8.65;100.00
4972;BME280;2501;51.214;6.768;2023-04-07T08:09:36;101294.63;;;8.56;100.00
4972;BME280;2501;51.214;6.768;2023-04-07T08:12:04;101292.94;;;8.58;100.00
4972;BME280;2501;51.214;6.768;2023-04-07T08:14:33;101298.81;;;8.49;100.00
4972;BME280;2501;51.214;6.768;2023-04-07T08:17:01;101296.88;;;8.78;100.00
4972;BME280;2501;51.214;6.768;2023-04-07T08:19:30;101297.75;;;8.79;100.00
4972;BME280;2501;51.214;6.768;2023-04-07T08:22:01;101303.44;;;8.59;100.00
4972;BME280;2501;51.214;6.768;2023-04-07T08:24:30;101303.50;;;9.03;100.00
4972;BME280;2501;51.214;6.768;2023-04-07T08:26:58;101304.78;;;8.81;100.00
4972;BME280;2501;51.214;6.768;2023-04-07T08:29:27;101307.69;;;8.95;100.00
4972;BME280;2501;51.214;6.768;2023-04-07T08:31:55;101303.66;;;8.70;100.00
4972;BME280;2501;51.214;6.768;2023-04-07T08:34:24;101312.38;;;8.70;100.00
4972;BME280;2501;51.214;6.768;2023-04-07T08:36:52;101310.72;;;8.74;100.00
4972;BME280;2501;51.214;6.768;2023-04-07T08:39:24;101323.06;;;8.80;100.00
4972;BME280;2501;51.214;6.768;2023-04-07T08:41:54;101318.38;;;8.65;100.00
4972;BME280;2501;51.214;6.768;2023-04-07T08:44:23;101320.00;;;8.60;100.00
4972;BME280;2501;51.214;6.768;2023-04-07T08:46:56;101324.59;;;8.34;100.00
4972;BME280;2501;51.214;6.768;2023-04-07T08:49:27;101331.34;;;8.60;100.00
4972;BME280;2501;51.214;6.768;2023-04-07T08:51:56;101328.59;;;8.56;100.00
4972;BME280;2501;51.214;6.768;2023-04-07T08:54:29;101329.53;;;8.58;100.00
4972;BME280;2501;51.214;6.768;2023-04-07T08:56:58;101331.84;;;8.82;100.00
4972;BME280;2501;51.214;6.768;2023-04-07T08:59:27;101332.31;;;8.64;100.00
4972;BME280;2501;51.214;6.768;2023-04-07T09:01:58;101332.59;;;8.78;100.00
4972;BME280;2501;51.214;6.768;2023-04-07T09:04:26;101335.69;;;8.60;100.00
4972;BME280;2501;51.214;6.768;2023-04-07T09:06:55;101331.94;;;8.50;100.00
4972;BME280;2501;51.214;6.768;2023-04-07T09:09:24;101338.03;;;8.48;100.00
4972;BME280;2501;51.214;6.768;2023-04-07T09:11:55;101336.69;;;8.65;100.00
4972;BME280;2501;51.214;6.768;2023-04-07T09:14:24;101334.69;;;8.55;100.00
4972;BME280;2501;51.214;6.768;2023-04-07T09:16:53;101337.31;;;8.55;100.00
4972;BME280;2501;51.214;6.768;2023-04-07T09:19:26;101348.72;;;8.58;100.00
4972;BME280;2501;51.214;6.768;2023-04-07T09:21:55;101351.78;;;8.78;100.00
4972;BME280;2501;51.214;6.768;2023-04-07T09:24:25;101351.50;;;8.66;100.00
4972;BME280;2501;51.214;6.768;2023-04-07T09:27:11;101346.16;;;8.60;100.00
4972;BME280;2501;51.214;6.768;2023-04-07T09:29:42;101345.19;;;8.56;100.00
4972;BME280;2501;51.214;6.768;2023-04-07T09:32:11;101354.22;;;8.70;100.00
4972;BME280;2501;51.214;6.768;2023-04-07T09:34:40;101354.09;;;8.66;100.00
4972;BME280;2501;51.214;6.768;2023-04-07T09:37:21;101354.78;;;8.57;100.00
4972;BME280;2501;51.214;6.768;2023-04-07T09:39:50;101348.91;;;8.67;100.00
4972;BME280;2501;51.214;6.768;2023-04-07T09:42:21;101356.22;;;8.81;100.00
4972;BME280;2501;51.214;6.768;2023-04-07T09:44:51;101357.25;;;8.51;100.00
4972;BME280;2501;51.214;6.768;2023-04-07T09:47:25;101352.25;;;8.60;100.00
4972;BME280;2501;51.214;6.768;2023-04-07T09:49:55;101354.19;;;8.69;100.00
4972;BME280;2501;51.214;6.768;2023-04-07T09:52:25;101357.94;;;8.80;100.00
4972;BME280;2501;51.214;6.768;2023-04-07T09:55:16;101362.09;;;9.10;100.00
4972;BME280;2501;51.214;6.768;2023-04-07T09:57:47;101365.84;;;9.22;100.00
4972;BME280;2501;51.214;6.768;2023-04-07T10:00:17;101362.34;;;8.81;100.00
4972;BME280;2501;51.214;6.768;2023-04-07T10:02:46;101368.72;;;8.94;100.00
4972;BME280;2501;51.214;6.768;2023-04-07T10:05:16;101368.78;;;8.97;99.58
4972;BME280;2501;51.214;6.768;2023-04-07T10:07:45;101363.06;;;9.15;98.74
4972;BME280;2501;51.214;6.768;2023-04-07T10:10:16;101362.22;;;9.16;98.29
4972;BME280;2501;51.214;6.768;2023-04-07T10:12:47;101369.94;;;9.10;97.77
4972;BME280;2501;51.214;6.768;2023-04-07T10:15:17;101366.69;;;9.21;97.09
4972;BME280;2501;51.214;6.768;2023-04-07T10:17:46;101366.47;;;9.11;96.67
4972;BME280;2501;51.214;6.768;2023-04-07T10:20:17;101360.34;;;9.10;96.62
4972;BME280;2501;51.214;6.768;2023-04-07T10:22:48;101366.25;;;9.00;96.64
4972;BME280;2501;51.214;6.768;2023-04-07T10:25:23;101369.69;;;8.97;96.58
4972;BME280;2501;51.214;6.768;2023-04-07T10:27:55;101377.84;;;9.13;96.46
4972;BME280;2501;51.214;6.768;2023-04-07T10:30:28;101373.34;;;9.07;96.46
4972;BME280;2501;51.214;6.768;2023-04-07T10:32:57;101381.19;;;9.05;96.71
4972;BME280;2501;51.214;6.768;2023-04-07T10:35:25;101380.13;;;8.97;96.16
4972;BME280;2501;51.214;6.768;2023-04-07T10:38:11;101383.41;;;8.89;96.74
4972;BME280;2501;51.214;6.768;2023-04-07T10:40:43;101378.91;;;9.63;95.34
4972;BME280;2501;51.214;6.768;2023-04-07T10:43:11;101384.94;;;9.60;93.90
4972;BME280;2501;51.214;6.768;2023-04-07T10:45:54;101385.81;;;9.59;93.44
4972;BME280;2501;51.214;6.768;2023-04-07T10:48:24;101381.69;;;9.28;94.02
4972;BME280;2501;51.214;6.768;2023-04-07T10:51:18;101388.53;;;9.64;93.89
4972;BME280;2501;51.214;6.768;2023-04-07T10:57:09;101386.84;;;9.25;95.48
4972;BME280;2501;51.214;6.768;2023-04-07T10:59:40;101391.66;;;9.46;96.22
4972;BME280;2501;51.214;6.768;2023-04-07T11:02:29;101395.31;;;9.56;95.59
4972;BME280;2501;51.214;6.768;2023-04-07T11:04:58;101387.22;;;9.43;95.52
4972;BME280;2501;51.214;6.768;2023-04-07T11:07:46;101393.88;;;9.71;94.58
4972;BME280;2501;51.214;6.768;2023-04-07T11:10:15;101385.03;;;10.11;93.15
4972;BME280;2501;51.214;6.768;2023-04-07T11:13:03;101390.97;;;10.00;91.41
4972;BME280;2501;51.214;6.768;2023-04-07T11:15:33;101399.34;;;9.82;92.06
4972;BME280;2501;51.214;6.768;2023-04-07T11:18:16;101398.47;;;9.82;92.95
4972;BME280;2501;51.214;6.768;2023-04-07T11:20:50;101389.94;;;10.38;92.91
4972;BME280;2501;51.214;6.768;2023-04-07T11:23:20;101398.53;;;10.31;91.22
4972;BME280;2501;51.214;6.768;2023-04-07T11:25:50;101399.84;;;10.56;90.44
4972;BME280;2501;51.214;6.768;2023-04-07T11:28:22;101395.66;;;10.69;87.90
4972;BME280;2501;51.214;6.768;2023-04-07T11:30:52;101386.25;;;10.83;86.64
4972;BME280;2501;51.214;6.768;2023-04-07T11:33:22;101399.56;;;10.95;85.18
4972;BME280;2501;51.214;6.768;2023-04-07T11:35:52;101396.69;;;10.78;85.31
4972;BME280;2501;51.214;6.768;2023-04-07T11:38:21;101410.03;;;10.38;86.80
4972;BME280;2501;51.214;6.768;2023-04-07T11:40:50;101407.94;;;10.19;87.75
4972;BME280;2501;51.214;6.768;2023-04-07T11:43:22;101409.34;;;10.01;88.79
4972;BME280;2501;51.214;6.768;2023-04-07T11:46:05;101411.06;;;10.01;89.48
4972;BME280;2501;51.214;6.768;2023-04-07T11:48:36;101414.31;;;9.89;90.17
4972;BME280;2501;51.214;6.768;2023-04-07T11:51:06;101414.53;;;9.56;90.35
4972;BME280;2501;51.214;6.768;2023-04-07T11:53:35;101418.91;;;9.99;89.57
4972;BME280;2501;51.214;6.768;2023-04-07T11:56:07;101423.69;;;10.20;88.85
4972;BME280;2501;51.214;6.768;2023-04-07T11:58:46;101432.06;;;10.02;88.60
4972;BME280;2501;51.214;6.768;2023-04-07T12:01:14;101430.69;;;9.77;89.74
4972;BME280;2501;51.214;6.768;2023-04-07T12:03:57;101431.38;;;9.67;90.38
4972;BME280;2501;51.214;6.768;2023-04-07T12:06:27;101434.59;;;9.56;91.13
4972;BME280;2501;51.214;6.768;2023-04-07T12:08:59;101432.16;;;9.63;92.12
4972;BME280;2501;51.214;6.768;2023-04-07T12:11:28;101438.16;;;9.58;92.70
4972;BME280;2501;51.214;6.768;2023-04-07T12:14:00;101441.22;;;9.79;92.70
4972;BME280;2501;51.214;6.768;2023-04-07T12:16:29;101447.13;;;9.69;92.72
4972;BME280;2501;51.214;6.768;2023-04-07T12:18:58;101442.38;;;9.51;92.76
4972;BME280;2501;51.214;6.768;2023-04-07T12:21:26;101447.81;;;9.60;92.86
4972;BME280;2501;51.214;6.768;2023-04-07T12:23:56;101445.34;;;9.68;91.76
4972;BME280;2501;51.214;6.768;2023-04-07T12:26:24;101444.00;;;9.88;91.12
4972;BME280;2501;51.214;6.768;2023-04-07T12:28:52;101449.00;;;9.76;90.91
4972;BME280;2501;51.214;6.768;2023-04-07T12:31:26;101449.34;;;9.93;90.87
4972;BME280;2501;51.214;6.768;2023-04-07T12:33:54;101452.97;;;9.99;90.19
4972;BME280;2501;51.214;6.768;2023-04-07T12:36:23;101452.50;;;9.76;90.56
4972;BME280;2501;51.214;6.768;2023-04-07T12:38:52;101462.91;;;10.17;89.53
4972;BME280;2501;51.214;6.768;2023-04-07T12:41:20;101450.84;;;10.25;88.52
4972;BME280;2501;51.214;6.768;2023-04-07T12:43:49;101451.31;;;10.50;87.50
4972;BME280;2501;51.214;6.768;2023-04-07T12:46:18;101453.78;;;9.97;86.95
4972;BME280;2501;51.214;6.768;2023-04-07T12:48:49;101459.09;;;10.00;87.76
4972;BME280;2501;51.214;6.768;2023-04-07T12:51:18;101458.31;;;10.04;87.95
4972;BME280;2501;51.214;6.768;2023-04-07T12:53:46;101462.53;;;9.97;87.58
4972;BME280;2501;51.214;6.768;2023-04-07T12:56:15;101460.06;;;10.06;87.55
4972;BME280;2501;51.214;6.768;2023-04-07T12:58:43;101457.56;;;10.11;86.94
4972;BME280;2501;51.214;6.768;2023-04-07T13:01:12;101464.06;;;10.30;86.39
4972;BME280;2501;51.214;6.768;2023-04-07T13:03:41;101454.56;;;10.36;86.39
4972;BME280;2501;51.214;6.768;2023-04-07T13:06:12;101458.69;;;10.72;85.94
4972;BME280;2501;51.214;6.768;2023-04-07T13:08:41;101452.88;;;10.40;85.01
4972;BME280;2501;51.214;6.768;2023-04-07T13:11:10;101460.69;;;10.35;85.68
4972;BME280;2501;51.214;6.768;2023-04-07T13:13:38;101455.59;;;10.46;85.62
4972;BME280;2501;51.214;6.768;2023-04-07T13:16:07;101454.88;;;10.53;85.11
4972;BME280;2501;51.214;6.768;2023-04-07T13:18:35;101460.06;;;10.50;85.12
4972;BME280;2501;51.214;6.768;2023-04-07T13:21:04;101457.50;;;10.53;84.41
4972;BME280;2501;51.214;6.768;2023-04-07T13:23:35;101458.75;;;10.27;85.80
4972;BME280;2501;51.214;6.768;2023-04-07T13:26:03;101457.97;;;10.31;86.03
4972;BME280;2501;51.214;6.768;2023-04-07T13:28:32;101466.94;;;9.98;86.84
4972;BME280;2501;51.214;6.768;2023-04-07T13:31:01;101461.59;;;9.94;88.00
4972;BME280;2501;51.214;6.768;2023-04-07T13:33:29;101467.44;;;10.24;87.91